createdAt,value
2018-09-04T00:00:28.294Z,9.70
2018-09-04T00:02:57.545Z,11.10
2018-09-04T00:05:26.806Z,13.57
2018-09-04T00:07:55.444Z,10.83
2018-09-04T00:10:24.265Z,13.13
2018-09-04T00:12:53.531Z,12.03
2018-09-04T00:15:22.163Z,9.73
2018-09-04T00:17:50.822Z,8.77
2018-09-04T00:20:19.449Z,12.60
2018-09-04T00:22:48.990Z,12.70
2018-09-04T00:25:17.597Z,12.70
2018-09-04T00:27:46.217Z,10.40
2018-09-04T00:30:15.394Z,12.30
2018-09-04T00:32:43.875Z,11.67
2018-09-04T00:35:12.503Z,10.60
2018-09-04T00:37:41.093Z,10.50
2018-09-04T00:40:09.844Z,11.07
2018-09-04T00:42:38.875Z,10.57
2018-09-04T00:45:07.629Z,11.50
2018-09-04T00:47:36.200Z,11.43
2018-09-04T00:50:05.282Z,11.03
2018-09-04T00:52:34.401Z,9.70
2018-09-04T00:55:04.372Z,10.90
2018-09-04T00:57:32.993Z,9.60
2018-09-04T01:00:01.547Z,9.87
2018-09-04T01:02:31.077Z,10.87
2018-09-04T01:05:00.370Z,9.43
2018-09-04T01:07:30.400Z,10.57
2018-09-04T01:09:59.081Z,9.50
2018-09-04T01:12:27.606Z,10.00
2018-09-04T01:14:57.462Z,10.73
2018-09-04T01:17:26.863Z,11.30
2018-09-04T01:19:55.379Z,10.40
2018-09-04T01:22:23.957Z,10.23
2018-09-04T01:24:52.467Z,10.83
2018-09-04T01:27:21.610Z,9.23
2018-09-04T01:29:50.295Z,8.50
2018-09-04T01:32:19.143Z,10.03
2018-09-04T01:34:48.284Z,9.17
2018-09-04T01:37:17.051Z,9.20
2018-09-04T01:39:46.159Z,8.57
2018-09-04T01:42:14.846Z,9.13
2018-09-04T01:44:43.531Z,10.87
2018-09-04T01:47:13.262Z,10.47
2018-09-04T01:49:42.528Z,10.73
2018-09-04T01:52:11.114Z,8.93
2018-09-04T01:54:39.759Z,9.53
2018-09-04T01:57:08.908Z,11.23
2018-09-04T01:59:37.487Z,9.90
2018-09-04T02:02:06.363Z,9.30
2018-09-04T02:04:35.033Z,14.03
2018-09-04T02:07:04.034Z,9.47
2018-09-04T02:09:33.274Z,11.90
2018-09-04T02:12:01.986Z,9.83
2018-09-04T02:14:30.652Z,10.13
2018-09-04T02:16:59.255Z,10.00
2018-09-04T02:19:28.503Z,12.10
2018-09-04T02:21:57.068Z,10.87
2018-09-04T02:24:25.727Z,12.43
2018-09-04T02:26:54.356Z,10.77
2018-09-04T02:29:22.990Z,12.63
2018-09-04T02:31:51.650Z,10.57
2018-09-04T02:34:20.996Z,12.23
2018-09-04T02:36:49.579Z,11.87
2018-09-04T02:39:18.881Z,15.33
2018-09-04T02:41:47.496Z,12.40
2018-09-04T02:44:16.150Z,12.73
2018-09-04T02:46:44.711Z,12.50
2018-09-04T02:49:13.337Z,10.07
2018-09-04T02:51:41.879Z,8.53
2018-09-04T02:54:10.661Z,8.20
2018-09-04T02:56:40.515Z,8.67
2018-09-04T02:59:09.411Z,9.47
2018-09-04T03:01:39.796Z,10.10
2018-09-04T03:04:08.571Z,9.97
2018-09-04T03:06:37.119Z,10.47
2018-09-04T03:09:07.372Z,10.00
2018-09-04T03:11:35.862Z,9.57
2018-09-04T03:14:05.571Z,9.77
2018-09-04T03:16:34.481Z,9.53
2018-09-04T03:19:03.843Z,7.93
2018-09-04T03:21:33.736Z,8.13
2018-09-04T03:24:02.329Z,7.33
2018-09-04T03:26:30.887Z,8.17
2018-09-04T03:28:59.441Z,9.43
2018-09-04T03:31:28.778Z,9.37
2018-09-04T03:33:57.320Z,10.60
2018-09-04T03:36:25.944Z,9.20
2018-09-04T03:38:54.608Z,8.33
2018-09-04T03:41:24.128Z,12.73
2018-09-04T03:43:52.629Z,10.90
2018-09-04T03:46:21.267Z,11.30
2018-09-04T03:48:50.222Z,9.97
2018-09-04T03:51:18.842Z,9.10
2018-09-04T03:53:47.365Z,8.93
2018-09-04T03:56:16.218Z,8.83
2018-09-04T03:58:45.446Z,8.13
2018-09-04T04:01:15.519Z,8.63
2018-09-04T04:03:44.042Z,6.83
2018-09-04T04:06:12.831Z,7.53
2018-09-04T04:08:41.394Z,6.97
2018-09-04T04:11:09.986Z,8.87
2018-09-04T04:13:38.542Z,7.53
2018-09-04T04:16:07.109Z,8.60
2018-09-04T04:18:35.874Z,8.50
2018-09-04T04:21:04.391Z,9.67
2018-09-04T04:23:32.950Z,7.73
2018-09-04T04:26:02.789Z,7.23
2018-09-04T04:28:31.335Z,7.63
2018-09-04T04:31:00.934Z,7.90
2018-09-04T04:33:29.579Z,8.30
2018-09-04T04:35:59.565Z,7.90
2018-09-04T04:38:28.216Z,8.67
2018-09-04T04:40:56.747Z,8.50
2018-09-04T04:43:25.219Z,9.10
2018-09-04T04:45:54.594Z,7.43
2018-09-04T04:48:23.971Z,9.37
2018-09-04T04:50:52.412Z,9.07
2018-09-04T04:53:20.924Z,8.37
2018-09-04T04:55:50.154Z,8.90
2018-09-04T04:58:18.612Z,9.33
2018-09-04T05:00:47.313Z,8.90
2018-09-04T05:03:15.855Z,7.67
2018-09-04T05:05:44.400Z,8.93
2018-09-04T05:08:12.918Z,7.43
2018-09-04T05:10:42.713Z,8.97
2018-09-04T05:13:12.189Z,8.30
2018-09-04T05:15:41.577Z,9.33
2018-09-04T05:18:10.918Z,8.47
2018-09-04T05:20:39.668Z,9.20
2018-09-04T05:23:08.336Z,9.53
2018-09-04T05:25:36.919Z,12.50
2018-09-04T05:28:06.684Z,11.87
2018-09-04T05:30:35.234Z,17.27
2018-09-04T05:33:08.748Z,12.73
2018-09-04T05:35:43.929Z,11.67
2018-09-04T05:38:13.101Z,10.43
2018-09-04T05:40:43.483Z,10.47
2018-09-04T05:43:15.340Z,10.23
2018-09-04T05:45:43.984Z,10.17
2018-09-04T05:48:14.479Z,10.80
2018-09-04T05:50:43.732Z,9.27
2018-09-04T05:53:12.421Z,10.83
2018-09-04T05:55:42.001Z,9.70
2018-09-04T05:58:11.307Z,14.00
2018-09-04T06:00:44.151Z,9.80
2018-09-04T06:03:12.639Z,12.50
2018-09-04T06:05:41.204Z,11.57
2018-09-04T06:08:09.862Z,12.47
2018-09-04T06:10:39.848Z,13.00
2018-09-04T06:13:09.297Z,12.80
2018-09-04T06:15:37.765Z,12.53
2018-09-04T06:18:06.804Z,12.33
2018-09-04T06:20:35.442Z,11.93
2018-09-04T06:23:04.681Z,12.20
2018-09-04T06:25:33.438Z,12.80
2018-09-04T06:28:02.280Z,14.30
2018-09-04T06:30:31.625Z,13.00
2018-09-04T06:33:00.683Z,16.17
2018-09-04T06:35:29.882Z,13.90
2018-09-04T06:37:58.463Z,14.47
2018-09-04T06:40:27.050Z,16.20
2018-09-04T06:42:57.022Z,15.10
2018-09-04T06:45:25.990Z,14.90
2018-09-04T06:47:55.150Z,16.83
2018-09-04T06:50:23.635Z,16.37
2018-09-04T06:52:52.271Z,14.73
2018-09-04T06:55:20.823Z,13.73
2018-09-04T06:57:49.495Z,14.07
2018-09-04T07:00:17.972Z,16.20
2018-09-04T07:02:46.542Z,14.03
2018-09-04T07:05:15.073Z,13.70
2018-09-04T07:07:44.963Z,14.10
2018-09-04T07:10:14.142Z,15.47
2018-09-04T07:12:42.695Z,18.00
2018-09-04T07:15:11.391Z,17.20
2018-09-04T07:17:40.926Z,16.77
2018-09-04T07:20:09.469Z,18.57
2018-09-04T07:22:38.370Z,19.10
2018-09-04T07:25:06.949Z,15.80
2018-09-04T07:27:35.567Z,15.23
2018-09-04T07:30:04.133Z,18.00
2018-09-04T07:32:32.714Z,19.80
2018-09-04T07:35:01.315Z,21.93
2018-09-04T07:37:29.870Z,22.30
2018-09-04T07:39:58.626Z,21.20
2018-09-04T07:42:27.130Z,21.60
2018-09-04T07:44:55.719Z,20.50
2018-09-04T07:47:24.383Z,22.03
2018-09-04T07:49:53.017Z,23.03
2018-09-04T07:52:21.653Z,20.73
2018-09-04T07:54:50.246Z,23.90
2018-09-04T07:57:18.896Z,21.17
2018-09-04T07:59:48.070Z,19.77
2018-09-04T08:02:16.801Z,20.60
2018-09-04T08:04:45.343Z,21.27
2018-09-04T08:07:13.917Z,20.97
2018-09-04T08:09:42.578Z,18.57
2018-09-04T08:12:11.167Z,24.13
2018-09-04T08:14:41.118Z,18.13
2018-09-04T08:17:11.520Z,18.67
2018-09-04T08:19:40.874Z,19.40
2018-09-04T08:22:10.848Z,17.60
2018-09-04T08:24:39.913Z,39.33
2018-09-04T08:27:09.825Z,39.93
2018-09-04T08:29:38.529Z,34.77
2018-09-04T08:32:07.214Z,24.43
2018-09-04T08:34:35.822Z,44.17
2018-09-04T08:37:04.428Z,23.10
2018-09-04T08:39:33.022Z,28.00
2018-09-04T08:42:01.813Z,66.40
2018-09-04T08:44:31.315Z,67.63
2018-09-04T08:46:59.953Z,22.13
2018-09-04T08:49:28.443Z,22.00
2018-09-04T08:51:58.973Z,69.40
2018-09-04T08:54:27.582Z,28.90
2018-09-04T08:56:59.218Z,17.30
2018-09-04T08:59:28.943Z,16.57
2018-09-04T09:01:57.514Z,16.73
2018-09-04T09:04:26.826Z,20.07
2018-09-04T09:06:55.949Z,38.50
2018-09-04T09:09:25.294Z,17.37
2018-09-04T09:11:53.826Z,14.10
2018-09-04T09:14:22.389Z,14.70
2018-09-04T09:16:51.656Z,16.17
2018-09-04T09:19:21.057Z,18.40
2018-09-04T09:21:50.197Z,17.47
2018-09-04T09:24:18.741Z,14.70
2018-09-04T09:26:47.932Z,19.20
2018-09-04T09:29:16.463Z,14.50
2018-09-04T09:31:44.988Z,19.60
2018-09-04T09:34:13.572Z,16.30
2018-09-04T09:36:42.386Z,16.87
2018-09-04T09:39:11.482Z,16.73
2018-09-04T09:41:40.971Z,14.38
2018-09-04T09:44:10.799Z,15.08
2018-09-04T09:46:40.310Z,13.73
2018-09-04T09:49:08.956Z,16.65
2018-09-04T09:51:37.644Z,13.78
2018-09-04T09:54:06.639Z,14.80
2018-09-04T09:56:35.506Z,17.02
2018-09-04T09:59:05.855Z,16.27
2018-09-04T10:01:39.872Z,16.75
2018-09-04T10:04:09.084Z,15.20
2018-09-04T10:06:38.491Z,16.20
2018-09-04T10:09:08.224Z,14.45
2018-09-04T10:11:36.833Z,14.78
2018-09-04T10:14:05.455Z,14.43
2018-09-04T10:16:34.410Z,16.93
2018-09-04T10:19:02.999Z,13.57
2018-09-04T10:21:32.079Z,14.07
2018-09-04T10:24:01.301Z,14.47
2018-09-04T10:26:30.050Z,15.38
2018-09-04T10:28:59.297Z,14.53
2018-09-04T10:31:27.858Z,15.93
2018-09-04T10:33:56.332Z,12.17
2018-09-04T10:36:24.890Z,12.68
2018-09-04T10:38:58.622Z,13.28
2018-09-04T10:41:27.219Z,13.87
2018-09-04T10:43:57.716Z,13.55
2018-09-04T10:46:26.964Z,16.45
2018-09-04T10:48:55.579Z,15.68
2018-09-04T10:51:24.143Z,15.57
2018-09-04T10:53:53.224Z,15.10
2018-09-04T10:56:21.811Z,11.87
2018-09-04T10:58:51.206Z,12.00
2018-09-04T11:01:19.758Z,11.20
2018-09-04T11:03:48.326Z,10.43
2018-09-04T11:06:16.871Z,12.00
2018-09-04T11:08:46.262Z,9.80
2018-09-04T11:11:14.838Z,10.67
2018-09-04T11:13:44.200Z,10.63
2018-09-04T11:16:13.702Z,10.30
2018-09-04T11:18:42.283Z,9.17
2018-09-04T11:21:11.683Z,7.10
2018-09-04T11:23:40.299Z,9.87
2018-09-04T11:26:09.773Z,7.47
2018-09-04T11:28:42.015Z,7.70
2018-09-04T11:31:10.563Z,8.10
2018-09-04T11:33:39.690Z,8.53
2018-09-04T11:36:08.295Z,7.73
2018-09-04T11:38:36.769Z,8.18
2018-09-04T11:41:06.053Z,7.83
2018-09-04T11:43:36.564Z,6.90
2018-09-04T11:46:06.075Z,6.87
2018-09-04T11:48:38.742Z,6.50
2018-09-04T11:51:09.551Z,6.70
2018-09-04T11:53:38.238Z,6.20
2018-09-04T11:56:07.529Z,5.60
2018-09-04T11:58:36.504Z,6.03
2018-09-04T12:01:09.426Z,6.57
2018-09-04T12:03:37.960Z,6.13
2018-09-04T12:06:07.199Z,5.50
2018-09-04T12:08:36.066Z,6.17
2018-09-04T12:11:05.373Z,5.93
2018-09-04T12:13:34.761Z,5.60
2018-09-04T12:16:03.735Z,5.40
2018-09-04T12:18:32.245Z,4.70
2018-09-04T12:21:06.808Z,4.20
2018-09-04T12:23:35.482Z,3.70
2018-09-04T12:26:06.002Z,4.70
2018-09-04T12:28:35.236Z,5.03
2018-09-04T12:31:04.103Z,5.03
2018-09-04T12:33:32.638Z,4.50
2018-09-04T12:36:01.836Z,4.90
2018-09-04T12:38:32.910Z,4.93
2018-09-04T12:41:06.323Z,5.60
2018-09-04T12:43:34.884Z,5.00
2018-09-04T12:46:03.699Z,4.67
2018-09-04T12:48:32.640Z,4.37
2018-09-04T12:51:02.182Z,4.63
2018-09-04T12:53:31.613Z,4.67
2018-09-04T12:56:00.820Z,4.27
2018-09-04T12:58:29.453Z,4.23
2018-09-04T13:00:58.679Z,3.93
2018-09-04T13:03:28.390Z,4.03
2018-09-04T13:05:56.983Z,4.37
2018-09-04T13:08:26.934Z,3.90
2018-09-04T13:10:55.511Z,4.10
2018-09-04T13:13:24.728Z,3.63
2018-09-04T13:15:55.284Z,3.75
2018-09-04T13:18:24.215Z,4.20
2018-09-04T13:20:54.711Z,3.83
2018-09-04T13:23:23.346Z,4.00
2018-09-04T13:25:51.868Z,4.30
2018-09-04T13:28:20.533Z,4.10
2018-09-04T13:30:50.073Z,4.17
2018-09-04T13:33:19.247Z,4.07
2018-09-04T13:35:47.838Z,4.00
2018-09-04T13:38:16.430Z,4.07
2018-09-04T13:40:45.057Z,4.57
2018-09-04T13:43:15.685Z,4.30
2018-09-04T13:45:45.238Z,4.03
2018-09-04T13:48:13.934Z,4.40
2018-09-04T13:50:43.017Z,3.93
2018-09-04T13:53:11.689Z,4.10
2018-09-04T13:55:40.371Z,4.07
2018-09-04T13:58:08.956Z,4.00
2018-09-04T14:00:37.492Z,4.00
2018-09-04T14:03:06.239Z,4.30
2018-09-04T14:05:34.793Z,4.50
2018-09-04T14:08:03.391Z,4.90
2018-09-04T14:10:31.987Z,4.20
2018-09-04T14:13:00.601Z,3.40
2018-09-04T14:15:29.260Z,4.10
2018-09-04T14:17:59.606Z,3.87
2018-09-04T14:20:28.156Z,3.73
2018-09-04T14:22:56.849Z,3.87
2018-09-04T14:25:26.306Z,3.73
2018-09-04T14:27:54.887Z,5.55
2018-09-04T14:30:23.664Z,5.20
2018-09-04T14:32:53.299Z,4.77
2018-09-04T14:35:22.541Z,5.80
2018-09-04T14:37:51.220Z,4.67
2018-09-04T14:40:20.043Z,4.60
2018-09-04T14:42:48.707Z,4.03
2018-09-04T14:45:17.301Z,3.77
2018-09-04T14:47:45.942Z,4.58
2018-09-04T14:50:14.437Z,4.77
2018-09-04T14:52:43.127Z,4.78
2018-09-04T14:55:11.750Z,4.55
2018-09-04T14:57:40.429Z,4.23
2018-09-04T15:00:08.966Z,4.27
2018-09-04T15:02:37.859Z,4.20
2018-09-04T15:05:06.423Z,4.47
2018-09-04T15:07:37.037Z,6.53
2018-09-04T15:10:06.486Z,6.00
2018-09-04T15:12:35.041Z,7.78
2018-09-04T15:15:03.621Z,4.77
2018-09-04T15:17:32.715Z,4.87
2018-09-04T15:20:01.927Z,4.00
2018-09-04T15:22:30.447Z,4.23
2018-09-04T15:24:59.011Z,5.57
2018-09-04T15:27:27.602Z,5.13
2018-09-04T15:29:56.155Z,3.60
2018-09-04T15:32:25.049Z,5.40
2018-09-04T15:34:53.570Z,4.87
2018-09-04T15:37:22.561Z,4.83
2018-09-04T15:39:51.076Z,3.90
2018-09-04T15:42:20.544Z,5.53
2018-09-04T15:44:49.231Z,4.50
2018-09-04T15:47:17.782Z,5.33
2018-09-04T15:49:47.231Z,8.93
2018-09-04T15:52:16.823Z,6.53
2018-09-04T15:54:45.593Z,6.00
2018-09-04T15:57:14.641Z,5.57
2018-09-04T15:59:43.420Z,4.40
2018-09-04T16:02:11.836Z,5.17
2018-09-04T16:04:40.547Z,5.72
2018-09-04T16:07:09.034Z,4.90
2018-09-04T16:09:37.734Z,4.92
2018-09-04T16:12:07.102Z,5.50
2018-09-04T16:14:35.711Z,4.40
2018-09-04T16:17:04.348Z,5.57
2018-09-04T16:19:34.134Z,4.87
2018-09-04T16:22:02.600Z,5.97
2018-09-04T16:24:31.166Z,6.28
2018-09-04T16:26:59.758Z,19.42
2018-09-04T16:29:29.367Z,17.02
2018-09-04T16:31:57.918Z,7.10
2018-09-04T16:34:26.579Z,5.57
2018-09-04T16:36:55.205Z,6.40
2018-09-04T16:39:23.820Z,5.40
2018-09-04T16:41:52.473Z,7.97
2018-09-04T16:44:22.041Z,6.00
2018-09-04T16:46:50.587Z,4.97
2018-09-04T16:49:23.760Z,5.53
2018-09-04T16:51:52.836Z,6.33
2018-09-04T16:54:22.482Z,5.30
2018-09-04T16:56:51.848Z,9.43
2018-09-04T16:59:20.517Z,9.00
2018-09-04T17:01:49.110Z,15.13
2018-09-04T17:04:18.169Z,7.70
2018-09-04T17:06:47.209Z,5.67
2018-09-04T17:09:15.878Z,8.07
2018-09-04T17:11:45.046Z,15.33
2018-09-04T17:14:13.710Z,19.53
2018-09-04T17:16:42.251Z,5.93
2018-09-04T17:19:11.467Z,6.37
2018-09-04T17:21:40.703Z,5.07
2018-09-04T17:24:09.236Z,7.30
2018-09-04T17:26:38.766Z,5.47
2018-09-04T17:29:07.330Z,7.17
2018-09-04T17:31:35.988Z,5.87
2018-09-04T17:34:05.578Z,5.23
2018-09-04T17:36:34.141Z,5.13
2018-09-04T17:39:02.792Z,6.17
2018-09-04T17:41:31.346Z,6.20
2018-09-04T17:43:59.953Z,5.87
2018-09-04T17:46:28.601Z,5.17
2018-09-04T17:48:57.716Z,5.80
2018-09-04T17:51:27.012Z,6.37
2018-09-04T17:53:55.587Z,7.80
2018-09-04T17:56:24.217Z,6.13
2018-09-04T17:58:53.021Z,5.80
2018-09-04T18:01:21.733Z,6.83
2018-09-04T18:03:50.811Z,6.03
2018-09-04T18:06:19.347Z,6.37
2018-09-04T18:08:48.005Z,6.13
2018-09-04T18:11:17.579Z,6.03
2018-09-04T18:13:46.021Z,7.13
2018-09-04T18:16:14.657Z,7.30
2018-09-04T18:18:43.154Z,10.43
2018-09-04T18:21:11.776Z,7.40
2018-09-04T18:23:40.310Z,7.30
2018-09-04T18:26:08.950Z,6.77
2018-09-04T18:28:42.433Z,6.33
2018-09-04T18:31:12.445Z,7.07
2018-09-04T18:33:41.768Z,7.40
2018-09-04T18:36:11.652Z,7.80
2018-09-04T18:38:40.838Z,7.83
2018-09-04T18:41:09.642Z,5.77
2018-09-04T18:43:38.229Z,6.57
2018-09-04T18:46:08.083Z,6.73
2018-09-04T18:48:37.221Z,5.80
2018-09-04T18:51:05.849Z,7.37
2018-09-04T18:53:34.354Z,5.67
2018-09-04T18:56:02.856Z,6.40
2018-09-04T18:58:31.397Z,6.27
2018-09-04T19:01:00.617Z,5.77
2018-09-04T19:03:29.807Z,5.60
2018-09-04T19:05:58.414Z,7.00
2018-09-04T19:08:26.946Z,6.40
2018-09-04T19:10:55.615Z,8.07
2018-09-04T19:13:24.706Z,6.60
2018-09-04T19:15:53.229Z,6.60
2018-09-04T19:18:21.786Z,6.37
2018-09-04T19:20:50.369Z,7.23
2018-09-04T19:23:18.928Z,6.30
2018-09-04T19:25:47.656Z,7.17
2018-09-04T19:28:17.124Z,6.33
2018-09-04T19:30:51.846Z,6.00
2018-09-04T19:33:21.218Z,5.77
2018-09-04T19:35:51.232Z,6.23
2018-09-04T19:38:19.907Z,6.23
2018-09-04T19:40:48.439Z,7.73
2018-09-04T19:43:17.738Z,5.97
2018-09-04T19:45:46.322Z,6.20
2018-09-04T19:48:14.782Z,6.47
2018-09-04T19:50:43.407Z,6.40
2018-09-04T19:53:11.918Z,7.07
2018-09-04T19:55:40.617Z,6.10
2018-09-04T19:58:09.591Z,6.33
2018-09-04T20:00:38.171Z,8.40
2018-09-04T20:03:06.731Z,6.83
2018-09-04T20:05:36.204Z,7.07
2018-09-04T20:08:04.753Z,7.07
2018-09-04T20:10:33.350Z,8.03
2018-09-04T20:13:02.002Z,7.50
2018-09-04T20:15:30.679Z,6.40
2018-09-04T20:17:59.876Z,6.90
2018-09-04T20:20:28.349Z,6.93
2018-09-04T20:22:59.624Z,6.97
2018-09-04T20:25:28.907Z,6.70
2018-09-04T20:27:57.714Z,6.70
2018-09-04T20:30:26.306Z,8.40
2018-09-04T20:33:25.655Z,6.83
2018-09-04T20:35:54.213Z,8.57
2018-09-04T20:38:22.785Z,7.20
2018-09-04T20:40:51.373Z,6.17
2018-09-04T20:43:19.917Z,7.67
2018-09-04T20:45:49.290Z,6.13
2018-09-04T20:48:17.898Z,6.77
2018-09-04T20:50:46.483Z,6.73
2018-09-04T20:53:14.950Z,6.70
2018-09-04T20:55:43.630Z,7.93
2018-09-04T20:58:23.187Z,7.50
2018-09-04T21:01:02.957Z,9.47
2018-09-04T21:03:42.598Z,8.07
2018-09-04T21:06:23.994Z,8.67
2018-09-04T21:08:59.206Z,9.00
2018-09-04T21:11:28.175Z,8.03
2018-09-04T21:13:57.674Z,9.77
2018-09-04T21:16:26.270Z,8.03
2018-09-04T21:18:54.775Z,10.10
2018-09-04T21:21:23.384Z,8.47
2018-09-04T21:23:51.929Z,8.63
2018-09-04T21:26:20.652Z,8.10
2018-09-04T21:28:49.241Z,9.70
2018-09-04T21:31:18.687Z,8.43
2018-09-04T21:33:48.046Z,10.17
2018-09-04T21:36:16.525Z,7.33
2018-09-04T21:38:45.880Z,6.87
2018-09-04T21:42:38.807Z,7.17
2018-09-04T21:45:07.327Z,7.90
2018-09-04T21:47:36.176Z,7.70
2018-09-04T21:50:05.283Z,7.57
2018-09-04T21:52:33.930Z,6.87
2018-09-04T21:55:02.458Z,9.13
2018-09-04T21:57:30.986Z,7.73
2018-09-04T21:59:59.512Z,8.83
2018-09-04T22:02:28.195Z,7.50
2018-09-04T22:04:56.971Z,7.00
2018-09-04T22:07:58.154Z,6.93
2018-09-04T22:10:27.602Z,7.50
2018-09-04T22:12:56.439Z,6.73
2018-09-04T22:15:26.264Z,9.17
2018-09-04T22:17:54.887Z,7.37
2018-09-04T22:20:23.601Z,7.03
2018-09-04T22:22:52.124Z,8.13
2018-09-04T22:25:20.640Z,6.77
2018-09-04T22:27:49.236Z,7.63
2018-09-04T22:30:18.447Z,7.07
2018-09-04T22:32:47.066Z,9.03
2018-09-04T22:35:15.546Z,6.43
2018-09-04T22:37:44.174Z,6.60
2018-09-04T22:40:12.879Z,8.43
2018-09-04T22:42:41.889Z,7.47
2018-09-04T22:45:10.764Z,6.90
2018-09-04T22:47:40.561Z,6.80
2018-09-04T22:50:15.156Z,7.50
2018-09-04T22:52:43.739Z,6.73
2018-09-04T22:55:14.094Z,7.30
2018-09-04T22:57:43.416Z,8.20
2018-09-04T23:00:12.950Z,7.17
2018-09-04T23:02:41.475Z,6.77
2018-09-04T23:05:10.010Z,7.37
2018-09-04T23:07:38.530Z,8.37
2018-09-04T23:10:07.037Z,6.60
2018-09-04T23:12:35.626Z,7.43
2018-09-04T23:15:04.725Z,6.63
2018-09-04T23:17:33.206Z,8.67
2018-09-04T23:20:01.768Z,7.10
2018-09-04T23:22:30.370Z,6.83
2018-09-04T23:24:58.994Z,7.97
2018-09-04T23:27:27.423Z,7.57
2018-09-04T23:29:55.890Z,6.47
2018-09-04T23:32:25.051Z,9.20
2018-09-04T23:34:53.631Z,8.10
2018-09-04T23:37:22.149Z,8.13
2018-09-04T23:39:51.361Z,8.10
2018-09-04T23:42:19.867Z,7.03
2018-09-04T23:44:49.116Z,7.93
2018-09-04T23:47:18.210Z,7.43
2018-09-04T23:49:46.781Z,6.80
2018-09-04T23:52:15.352Z,7.43
2018-09-04T23:54:43.953Z,7.20
2018-09-04T23:57:13.004Z,9.07
2018-09-04T23:59:41.667Z,6.67
